createdAt,value
2019-05-15T00:00:12.194Z,3.25
2019-05-15T00:01:19.253Z,3.10
2019-05-15T00:02:24.926Z,3.17
2019-05-15T00:03:29.670Z,3.45
2019-05-15T00:04:35.509Z,3.20
2019-05-15T00:05:40.487Z,3.10
2019-05-15T00:06:48.538Z,3.20
2019-05-15T00:07:59.358Z,3.40
2019-05-15T00:09:07.977Z,3.58
2019-05-15T00:10:12.828Z,3.10
2019-05-15T00:11:19.212Z,3.75
2019-05-15T00:12:24.424Z,2.95
2019-05-15T00:13:30.134Z,3.12
2019-05-15T00:14:35.489Z,3.30
2019-05-15T00:15:41.055Z,3.00
2019-05-15T00:16:48.188Z,3.45
2019-05-15T00:17:53.709Z,3.25
2019-05-15T00:18:59.146Z,3.27
2019-05-15T00:20:04.530Z,3.05
2019-05-15T00:21:09.572Z,3.12
2019-05-15T00:22:15.138Z,2.87
2019-05-15T00:23:20.520Z,3.27
2019-05-15T00:24:28.631Z,3.15
2019-05-15T00:25:34.298Z,3.17
2019-05-15T00:26:39.861Z,3.05
2019-05-15T00:27:44.691Z,3.17
2019-05-15T00:28:49.955Z,3.22
2019-05-15T00:29:57.820Z,3.50
2019-05-15T00:31:02.803Z,2.95
2019-05-15T00:32:09.187Z,3.17
2019-05-15T00:33:15.268Z,2.87
2019-05-15T00:34:20.543Z,3.22
2019-05-15T00:35:28.619Z,2.80
2019-05-15T00:36:33.398Z,2.92
2019-05-15T00:37:39.179Z,3.02
2019-05-15T00:38:44.251Z,3.10
2019-05-15T00:39:50.065Z,3.30
2019-05-15T00:40:55.378Z,2.72
2019-05-15T00:42:00.904Z,3.17
2019-05-15T00:43:05.841Z,2.90
2019-05-15T00:44:11.408Z,3.37
2019-05-15T00:45:18.431Z,3.10
2019-05-15T00:46:23.880Z,2.60
2019-05-15T00:47:28.901Z,3.00
2019-05-15T00:48:34.476Z,3.17
2019-05-15T00:49:39.294Z,3.12
2019-05-15T00:50:44.851Z,2.80
2019-05-15T00:51:49.834Z,3.33
2019-05-15T00:52:55.443Z,2.70
2019-05-15T00:54:00.561Z,3.25
2019-05-15T00:55:08.622Z,2.87
2019-05-15T00:56:13.314Z,2.95
2019-05-15T00:57:19.311Z,3.17
2019-05-15T00:58:24.217Z,2.95
2019-05-15T00:59:30.222Z,2.70
2019-05-15T01:00:41.387Z,2.87
2019-05-15T01:01:48.732Z,2.80
2019-05-15T01:02:53.652Z,2.80
2019-05-15T01:03:59.251Z,2.65
2019-05-15T01:05:04.357Z,2.95
2019-05-15T01:06:09.884Z,2.92
2019-05-15T01:07:14.874Z,2.95
2019-05-15T01:08:20.147Z,3.17
2019-05-15T01:09:25.752Z,2.67
2019-05-15T01:10:31.394Z,2.60
2019-05-15T01:11:38.194Z,3.20
2019-05-15T01:12:43.817Z,2.70
2019-05-15T01:13:48.816Z,2.80
2019-05-15T01:14:58.326Z,2.83
2019-05-15T01:16:03.745Z,2.50
2019-05-15T01:17:09.326Z,2.58
2019-05-15T01:18:14.255Z,2.55
2019-05-15T01:19:19.838Z,3.08
2019-05-15T01:20:24.940Z,2.87
2019-05-15T01:21:30.171Z,2.72
2019-05-15T01:22:35.700Z,2.67
2019-05-15T01:23:41.871Z,2.95
2019-05-15T01:24:48.541Z,2.95
2019-05-15T01:25:54.212Z,2.80
2019-05-15T01:27:00.032Z,3.00
2019-05-15T01:28:06.129Z,2.77
2019-05-15T01:29:11.393Z,2.75
2019-05-15T01:30:17.979Z,2.70
2019-05-15T01:31:23.485Z,3.10
2019-05-15T01:32:28.814Z,2.80
2019-05-15T01:33:33.783Z,3.00
2019-05-15T01:34:39.018Z,2.50
2019-05-15T01:35:44.323Z,3.00
2019-05-15T01:36:49.550Z,2.47
2019-05-15T01:37:54.816Z,2.80
2019-05-15T01:39:00.436Z,3.05
2019-05-15T01:40:05.502Z,3.10
2019-05-15T01:41:11.354Z,2.90
2019-05-15T01:42:18.575Z,3.22
2019-05-15T01:43:23.951Z,3.08
2019-05-15T01:44:29.624Z,2.98
2019-05-15T01:45:35.146Z,3.17
2019-05-15T01:46:39.856Z,3.00
2019-05-15T01:47:45.168Z,3.22
2019-05-15T01:48:50.444Z,3.20
2019-05-15T01:49:58.297Z,3.17
2019-05-15T01:51:03.289Z,2.80
2019-05-15T01:52:08.820Z,2.67
2019-05-15T01:53:14.062Z,2.95
2019-05-15T01:54:19.948Z,2.92
2019-05-15T01:55:24.939Z,3.05
2019-05-15T01:56:30.486Z,2.90
2019-05-15T01:57:38.156Z,2.92
2019-05-15T01:58:43.251Z,2.83
2019-05-15T01:59:57.009Z,2.80
2019-05-15T02:00:55.591Z,2.95
2019-05-15T02:02:00.316Z,2.80
2019-05-15T02:03:06.125Z,2.92
2019-05-15T02:04:10.871Z,3.00
2019-05-15T02:05:16.111Z,2.70
2019-05-15T02:06:21.346Z,2.60
2019-05-15T02:07:28.070Z,2.75
2019-05-15T02:08:33.245Z,2.95
2019-05-15T02:09:38.775Z,2.77
2019-05-15T02:10:43.492Z,2.67
2019-05-15T02:11:49.014Z,2.90
2019-05-15T02:12:54.074Z,2.70
2019-05-15T02:13:59.586Z,2.85
2019-05-15T02:15:04.287Z,2.95
2019-05-15T02:16:09.934Z,2.77
2019-05-15T02:17:15.460Z,3.17
2019-05-15T02:18:20.991Z,2.67
2019-05-15T02:19:26.036Z,3.20
2019-05-15T02:20:31.353Z,2.62
2019-05-15T02:21:37.984Z,2.77
2019-05-15T02:22:43.142Z,3.08
2019-05-15T02:23:48.383Z,2.90
2019-05-15T02:24:54.624Z,2.75
2019-05-15T02:26:00.126Z,3.17
2019-05-15T02:27:05.981Z,2.87
2019-05-15T02:28:10.942Z,2.77
2019-05-15T02:29:20.357Z,2.67
2019-05-15T02:30:28.875Z,2.60
2019-05-15T02:31:31.132Z,3.08
2019-05-15T02:32:39.591Z,2.65
2019-05-15T02:33:44.015Z,2.55
2019-05-15T02:34:50.052Z,3.05
2019-05-15T02:35:56.193Z,2.65
2019-05-15T02:37:01.207Z,2.90
2019-05-15T02:38:10.161Z,2.72
2019-05-15T02:39:13.379Z,2.75
2019-05-15T02:40:19.273Z,3.15
2019-05-15T02:41:24.572Z,3.00
2019-05-15T02:42:29.901Z,2.85
2019-05-15T02:43:35.144Z,2.92
2019-05-15T02:44:40.694Z,2.75
2019-05-15T02:45:45.981Z,2.60
2019-05-15T02:46:51.517Z,2.85
2019-05-15T02:47:59.479Z,2.67
2019-05-15T02:49:03.862Z,2.70
2019-05-15T02:50:10.599Z,2.83
2019-05-15T02:51:19.120Z,2.70
2019-05-15T02:52:22.903Z,3.00
2019-05-15T02:53:29.884Z,2.87
2019-05-15T02:54:35.381Z,2.80
2019-05-15T02:55:40.831Z,2.92
2019-05-15T02:56:49.362Z,2.90
2019-05-15T02:57:54.451Z,2.67
2019-05-15T02:59:00.150Z,2.77
2019-05-15T03:00:05.924Z,2.87
2019-05-15T03:01:10.901Z,2.85
2019-05-15T03:02:19.005Z,3.20
2019-05-15T03:03:22.874Z,2.60
2019-05-15T03:04:29.092Z,3.00
2019-05-15T03:05:33.868Z,3.00
2019-05-15T03:06:39.277Z,2.77
2019-05-15T03:07:44.290Z,2.77
2019-05-15T03:08:49.922Z,2.90
2019-05-15T03:09:55.094Z,2.95
2019-05-15T03:11:00.384Z,2.72
2019-05-15T03:12:05.175Z,2.80
2019-05-15T03:13:10.370Z,2.83
2019-05-15T03:14:15.771Z,2.65
2019-05-15T03:15:21.306Z,2.65
2019-05-15T03:16:30.114Z,2.40
2019-05-15T03:17:33.669Z,2.90
2019-05-15T03:18:39.785Z,3.00
2019-05-15T03:19:45.637Z,2.70
2019-05-15T03:20:50.940Z,2.72
2019-05-15T03:21:59.649Z,2.87
2019-05-15T03:23:03.382Z,3.10
2019-05-15T03:24:10.132Z,3.00
2019-05-15T03:25:15.157Z,2.80
2019-05-15T03:26:20.471Z,2.67
2019-05-15T03:27:25.586Z,2.80
2019-05-15T03:28:31.299Z,2.80
2019-05-15T03:29:40.000Z,2.90
2019-05-15T03:31:12.229Z,2.72
2019-05-15T03:32:06.441Z,2.62
2019-05-15T03:33:07.856Z,3.00
2019-05-15T03:34:04.363Z,2.50
2019-05-15T03:35:14.712Z,2.80
2019-05-15T03:36:22.260Z,2.83
2019-05-15T03:37:23.913Z,2.77
2019-05-15T03:38:29.857Z,2.77
2019-05-15T03:39:38.624Z,3.10
2019-05-15T03:40:42.844Z,2.75
2019-05-15T03:41:49.711Z,2.83
2019-05-15T03:42:55.143Z,2.77
2019-05-15T03:44:00.955Z,2.80
2019-05-15T03:45:09.631Z,2.87
2019-05-15T03:46:14.056Z,3.05
2019-05-15T03:47:19.617Z,2.70
2019-05-15T03:48:28.586Z,2.60
2019-05-15T03:49:32.532Z,3.00
2019-05-15T03:50:40.247Z,3.40
2019-05-15T03:51:45.885Z,2.98
2019-05-15T03:52:51.893Z,3.15
2019-05-15T03:54:00.079Z,2.90
2019-05-15T03:55:03.704Z,2.58
2019-05-15T03:56:09.773Z,3.33
2019-05-15T03:57:20.058Z,2.70
2019-05-15T03:58:22.976Z,2.90
2019-05-15T03:59:29.460Z,3.60
2019-05-15T04:00:34.153Z,3.10
2019-05-15T04:01:43.568Z,2.70
2019-05-15T04:02:48.643Z,3.15
2019-05-15T04:03:52.871Z,3.17
2019-05-15T04:05:01.565Z,2.50
2019-05-15T04:06:05.240Z,2.87
2019-05-15T04:07:10.301Z,2.75
2019-05-15T04:08:19.157Z,3.27
2019-05-15T04:09:23.416Z,3.20
2019-05-15T04:10:29.016Z,3.02
2019-05-15T04:11:34.362Z,2.65
2019-05-15T04:12:40.987Z,2.67
2019-05-15T04:13:49.760Z,2.90
2019-05-15T04:14:53.529Z,3.05
2019-05-15T04:15:59.379Z,2.90
2019-05-15T04:17:04.659Z,2.62
2019-05-15T04:18:10.042Z,2.90
2019-05-15T04:19:18.847Z,3.50
2019-05-15T04:20:21.737Z,2.90
2019-05-15T04:21:30.392Z,3.12
2019-05-15T04:22:34.814Z,2.85
2019-05-15T04:23:41.230Z,2.80
2019-05-15T04:24:49.383Z,2.83
2019-05-15T04:25:54.634Z,2.92
2019-05-15T04:27:00.815Z,3.25
2019-05-15T04:28:10.176Z,3.17
2019-05-15T04:29:15.583Z,3.02
2019-05-15T04:30:20.621Z,3.10
2019-05-15T04:31:25.660Z,2.90
2019-05-15T04:32:31.827Z,2.92
2019-05-15T04:33:39.916Z,2.90
2019-05-15T04:34:44.570Z,3.12
2019-05-15T04:35:49.808Z,2.72
2019-05-15T04:36:55.197Z,3.37
2019-05-15T04:37:59.986Z,3.02
2019-05-15T04:39:09.830Z,3.05
2019-05-15T04:40:14.271Z,3.27
2019-05-15T04:41:20.247Z,3.02
2019-05-15T04:42:25.609Z,3.27
2019-05-15T04:43:39.662Z,2.87
2019-05-15T04:44:39.487Z,3.40
2019-05-15T04:45:45.032Z,3.58
2019-05-15T04:46:50.146Z,3.33
2019-05-15T04:47:58.757Z,3.10
2019-05-15T04:49:02.751Z,3.17
2019-05-15T04:50:09.138Z,3.37
2019-05-15T04:51:14.399Z,2.85
2019-05-15T04:52:20.266Z,3.20
2019-05-15T04:53:25.610Z,3.30
2019-05-15T04:54:31.505Z,3.08
2019-05-15T04:55:35.990Z,3.77
2019-05-15T04:56:41.646Z,3.70
2019-05-15T04:57:49.963Z,3.83
2019-05-15T04:58:54.324Z,3.77
2019-05-15T04:59:59.140Z,3.80
2019-05-15T05:01:04.427Z,3.83
2019-05-15T05:02:17.172Z,4.42
2019-05-15T05:03:19.805Z,3.65
2019-05-15T05:04:23.875Z,3.50
2019-05-15T05:05:29.603Z,3.60
2019-05-15T05:06:38.619Z,3.45
2019-05-15T05:07:43.278Z,3.30
2019-05-15T05:08:49.131Z,3.10
2019-05-15T05:09:54.767Z,3.27
2019-05-15T05:11:00.010Z,3.33
2019-05-15T05:12:05.308Z,3.02
2019-05-15T05:13:10.310Z,2.83
2019-05-15T05:14:18.657Z,2.85
2019-05-15T05:15:23.054Z,3.52
2019-05-15T05:16:29.478Z,3.33
2019-05-15T05:17:34.646Z,3.12
2019-05-15T05:18:41.532Z,3.15
2019-05-15T05:19:47.889Z,3.12
2019-05-15T05:20:54.079Z,3.08
2019-05-15T05:21:58.839Z,3.20
2019-05-15T05:23:04.146Z,3.52
2019-05-15T05:24:08.877Z,3.00
2019-05-15T05:25:14.487Z,3.02
2019-05-15T05:26:19.368Z,3.20
2019-05-15T05:27:24.668Z,3.25
2019-05-15T05:28:30.318Z,3.08
2019-05-15T05:29:38.460Z,3.22
2019-05-15T05:30:42.659Z,3.05
2019-05-15T05:31:49.085Z,3.17
2019-05-15T05:32:53.878Z,3.27
2019-05-15T05:33:59.679Z,2.95
2019-05-15T05:35:05.354Z,3.27
2019-05-15T05:36:10.899Z,3.10
2019-05-15T05:37:18.129Z,2.77
2019-05-15T05:38:23.284Z,2.75
2019-05-15T05:39:29.430Z,2.77
2019-05-15T05:40:35.152Z,2.70
2019-05-15T05:41:40.814Z,2.55
2019-05-15T05:42:47.938Z,2.62
2019-05-15T05:43:52.629Z,2.50
2019-05-15T05:44:58.574Z,2.40
2019-05-15T05:46:03.090Z,2.17
2019-05-15T05:47:09.398Z,2.42
2019-05-15T05:48:14.224Z,2.12
2019-05-15T05:49:19.243Z,2.50
2019-05-15T05:50:43.819Z,2.22
2019-05-15T05:51:48.231Z,2.12
2019-05-15T05:52:53.460Z,2.22
2019-05-15T05:53:59.179Z,2.20
2019-05-15T05:55:04.167Z,2.27
2019-05-15T05:56:09.451Z,2.12
2019-05-15T05:57:14.495Z,2.33
2019-05-15T05:58:19.990Z,2.72
2019-05-15T05:59:25.554Z,2.33
2019-05-15T06:00:39.355Z,2.15
2019-05-15T06:01:44.481Z,2.50
2019-05-15T06:02:52.375Z,2.37
2019-05-15T06:03:58.168Z,2.30
2019-05-15T06:05:03.624Z,2.77
2019-05-15T06:06:09.747Z,2.17
2019-05-15T06:07:18.318Z,2.40
2019-05-15T06:08:22.600Z,2.35
2019-05-15T06:09:28.181Z,2.00
2019-05-15T06:10:33.201Z,2.47
2019-05-15T06:11:38.742Z,2.40
2019-05-15T06:12:44.077Z,2.20
2019-05-15T06:13:52.505Z,2.50
2019-05-15T06:14:58.052Z,2.25
2019-05-15T06:16:03.712Z,1.92
2019-05-15T06:17:08.770Z,1.95
2019-05-15T06:18:14.395Z,2.35
2019-05-15T06:19:19.838Z,2.40
2019-05-15T06:20:25.135Z,2.30
2019-05-15T06:21:29.936Z,2.22
2019-05-15T06:22:35.541Z,2.20
2019-05-15T06:23:45.658Z,2.30
2019-05-15T06:24:48.509Z,1.98
2019-05-15T06:25:54.057Z,1.90
2019-05-15T06:26:59.694Z,2.08
2019-05-15T06:28:04.488Z,1.60
2019-05-15T06:29:10.231Z,2.25
2019-05-15T06:30:22.202Z,2.27
2019-05-15T06:31:22.667Z,2.10
2019-05-15T06:32:28.952Z,2.17
2019-05-15T06:33:34.676Z,2.15
2019-05-15T06:34:40.015Z,2.00
2019-05-15T06:35:45.567Z,2.20
2019-05-15T06:36:50.717Z,1.57
2019-05-15T06:37:59.104Z,1.72
2019-05-15T06:39:08.331Z,1.82
2019-05-15T06:40:12.902Z,1.77
2019-05-15T06:41:18.485Z,1.80
2019-05-15T06:42:23.829Z,1.60
2019-05-15T06:43:28.835Z,1.60
2019-05-15T06:44:34.420Z,1.40
2019-05-15T06:45:40.981Z,1.32
2019-05-15T06:46:48.359Z,1.60
2019-05-15T06:47:53.399Z,1.47
2019-05-15T06:48:59.143Z,1.42
2019-05-15T06:50:04.106Z,1.27
2019-05-15T06:51:09.910Z,1.17
2019-05-15T06:52:14.408Z,1.32
2019-05-15T06:53:19.807Z,1.30
2019-05-15T06:54:25.148Z,1.20
2019-05-15T06:55:30.770Z,1.47
2019-05-15T06:56:38.636Z,1.20
2019-05-15T06:57:43.369Z,1.25
2019-05-15T06:58:48.711Z,1.10
2019-05-15T06:59:54.652Z,1.30
2019-05-15T07:00:59.639Z,1.12
2019-05-15T07:02:04.727Z,1.27
2019-05-15T07:03:20.115Z,1.20
2019-05-15T07:04:18.169Z,1.35
2019-05-15T07:05:22.597Z,1.30
2019-05-15T07:06:28.690Z,1.27
2019-05-15T07:07:33.753Z,1.40
2019-05-15T07:08:39.423Z,1.40
2019-05-15T07:09:44.168Z,1.20
2019-05-15T07:10:50.096Z,1.20
2019-05-15T07:11:55.401Z,1.17
2019-05-15T07:13:00.429Z,1.42
2019-05-15T07:14:05.380Z,1.40
2019-05-15T07:15:10.648Z,1.15
2019-05-15T07:16:18.053Z,1.37
2019-05-15T07:17:23.093Z,1.10
2019-05-15T07:18:28.453Z,1.10
2019-05-15T07:19:33.909Z,1.17
2019-05-15T07:20:39.234Z,0.95
2019-05-15T07:21:45.103Z,1.22
2019-05-15T07:22:50.399Z,1.25
2019-05-15T07:23:58.385Z,1.10
2019-05-15T07:25:03.110Z,1.37
2019-05-15T07:26:09.422Z,1.22
2019-05-15T07:27:14.630Z,1.50
2019-05-15T07:28:20.540Z,1.10
2019-05-15T07:29:25.829Z,1.27
2019-05-15T07:30:31.376Z,1.27
2019-05-15T07:31:38.219Z,1.10
2019-05-15T07:32:43.726Z,1.20
2019-05-15T07:33:49.266Z,1.20
2019-05-15T07:34:54.753Z,1.00
2019-05-15T07:35:59.306Z,1.00
2019-05-15T07:37:04.909Z,1.22
2019-05-15T07:38:09.892Z,1.17
2019-05-15T07:39:15.158Z,1.10
2019-05-15T07:40:20.417Z,1.10
2019-05-15T07:41:28.554Z,1.30
2019-05-15T07:42:33.289Z,1.15
2019-05-15T07:43:38.843Z,1.20
2019-05-15T07:44:43.923Z,1.27
2019-05-15T07:45:54.221Z,1.10
2019-05-15T07:46:58.393Z,1.12
2019-05-15T07:48:04.022Z,1.30
2019-05-15T07:49:09.370Z,1.00
2019-05-15T07:50:16.495Z,1.05
2019-05-15T07:51:21.861Z,0.93
2019-05-15T07:52:28.864Z,1.22
2019-05-15T07:53:33.704Z,1.20
2019-05-15T07:54:39.631Z,1.30
2019-05-15T07:55:44.641Z,1.12
2019-05-15T07:56:50.298Z,1.17
2019-05-15T07:57:55.238Z,1.00
2019-05-15T07:59:00.862Z,1.00
2019-05-15T08:00:08.310Z,1.15
2019-05-15T08:01:14.439Z,1.00
2019-05-15T08:02:19.702Z,1.40
2019-05-15T08:03:25.537Z,1.05
2019-05-15T08:04:32.890Z,1.20
2019-05-15T08:05:38.214Z,1.00
2019-05-15T08:06:43.457Z,1.10
2019-05-15T08:07:49.136Z,1.20
2019-05-15T08:08:53.661Z,1.00
2019-05-15T08:09:59.630Z,1.20
2019-05-15T08:11:17.433Z,1.12
2019-05-15T08:12:11.632Z,1.15
2019-05-15T08:13:18.514Z,1.10
2019-05-15T08:14:23.694Z,1.10
2019-05-15T08:15:28.822Z,1.25
2019-05-15T08:16:34.092Z,1.10
2019-05-15T08:17:58.489Z,1.10
2019-05-15T08:18:48.440Z,1.20
2019-05-15T08:19:53.554Z,1.02
2019-05-15T08:20:59.057Z,1.10
2019-05-15T08:22:04.600Z,1.20
2019-05-15T08:23:09.869Z,1.22
2019-05-15T08:24:14.600Z,1.10
2019-05-15T08:25:31.214Z,1.15
2019-05-15T08:26:28.309Z,1.30
2019-05-15T08:27:34.015Z,1.12
2019-05-15T08:28:38.744Z,1.20
2019-05-15T08:29:44.604Z,0.88
2019-05-15T08:30:50.034Z,1.30
2019-05-15T08:31:55.448Z,1.45
2019-05-15T08:33:00.755Z,1.17
2019-05-15T08:34:15.194Z,1.10
2019-05-15T08:35:12.918Z,1.27
2019-05-15T08:36:18.312Z,1.30
2019-05-15T08:37:23.305Z,1.47
2019-05-15T08:38:29.009Z,1.42
2019-05-15T08:39:34.390Z,1.30
2019-05-15T08:40:41.002Z,1.10
2019-05-15T08:41:48.371Z,1.40
2019-05-15T08:42:58.068Z,1.37
2019-05-15T08:44:00.418Z,1.30
2019-05-15T08:45:05.910Z,1.30
2019-05-15T08:46:10.680Z,1.32
2019-05-15T08:47:18.944Z,1.40
2019-05-15T08:48:23.240Z,1.10
2019-05-15T08:49:28.806Z,1.17
2019-05-15T08:50:33.685Z,1.20
2019-05-15T08:51:39.526Z,1.37
2019-05-15T08:52:44.219Z,1.20
2019-05-15T08:53:49.549Z,1.42
2019-05-15T08:54:55.228Z,1.30
2019-05-15T08:56:01.073Z,1.20
2019-05-15T08:57:08.487Z,1.20
2019-05-15T08:58:14.046Z,1.10
2019-05-15T08:59:19.577Z,1.20
2019-05-15T09:00:25.735Z,1.10
2019-05-15T09:01:30.503Z,1.00
2019-05-15T09:02:38.103Z,1.12
2019-05-15T09:03:42.738Z,1.45
2019-05-15T09:04:48.645Z,1.40
2019-05-15T09:05:54.107Z,1.10
2019-05-15T09:07:01.247Z,1.30
2019-05-15T09:08:09.086Z,1.20
2019-05-15T09:09:13.679Z,1.00
2019-05-15T09:10:18.602Z,1.05
2019-05-15T09:11:24.123Z,1.10
2019-05-15T09:12:29.417Z,1.22
2019-05-15T09:13:34.617Z,1.40
2019-05-15T09:14:39.608Z,1.10
2019-05-15T09:15:44.870Z,1.45
2019-05-15T09:16:49.849Z,1.37
2019-05-15T09:18:08.044Z,1.67
2019-05-15T09:19:01.985Z,1.50
2019-05-15T09:20:08.204Z,1.60
2019-05-15T09:21:13.000Z,1.70
2019-05-15T09:22:18.749Z,1.50
2019-05-15T09:23:24.489Z,1.40
2019-05-15T09:24:29.564Z,1.60
2019-05-15T09:25:34.669Z,1.85
2019-05-15T09:26:40.650Z,1.60
2019-05-15T09:27:45.173Z,1.42
2019-05-15T09:28:50.738Z,1.80
2019-05-15T09:29:55.671Z,1.70
2019-05-15T09:31:01.217Z,1.57
2019-05-15T09:32:08.628Z,1.55
2019-05-15T09:33:13.961Z,1.40
2019-05-15T09:34:18.764Z,1.45
2019-05-15T09:35:23.735Z,1.60
2019-05-15T09:36:28.871Z,1.42
2019-05-15T09:37:34.552Z,1.60
2019-05-15T09:38:40.028Z,1.70
2019-05-15T09:39:45.631Z,1.87
2019-05-15T09:40:51.238Z,1.50
2019-05-15T09:41:57.903Z,1.57
2019-05-15T09:43:02.749Z,1.52
2019-05-15T09:44:08.525Z,1.62
2019-05-15T09:45:13.175Z,1.82
2019-05-15T09:46:18.785Z,1.40
2019-05-15T09:47:23.555Z,1.45
2019-05-15T09:48:29.036Z,1.65
2019-05-15T09:49:34.281Z,1.60
2019-05-15T09:50:39.775Z,1.72
2019-05-15T09:51:44.942Z,1.57
2019-05-15T09:52:50.354Z,1.65
2019-05-15T09:53:55.409Z,1.50
2019-05-15T09:55:00.966Z,1.60
2019-05-15T09:56:07.980Z,1.50
2019-05-15T09:57:13.006Z,1.65
2019-05-15T09:58:20.334Z,2.00
2019-05-15T09:59:24.736Z,1.70
2019-05-15T10:00:29.964Z,1.50
2019-05-15T10:01:35.478Z,1.50
2019-05-15T10:02:40.195Z,1.60
2019-05-15T10:03:48.260Z,1.52
2019-05-15T10:05:05.448Z,1.77
2019-05-15T10:05:59.550Z,1.50
2019-05-15T10:07:04.339Z,1.40
2019-05-15T10:08:10.190Z,1.57
2019-05-15T10:09:14.886Z,1.37
2019-05-15T10:10:20.822Z,1.42
2019-05-15T10:11:28.732Z,1.55
2019-05-15T10:12:35.151Z,1.70
2019-05-15T10:13:40.492Z,1.30
2019-05-15T10:14:48.942Z,1.30
2019-05-15T10:15:52.384Z,1.67
2019-05-15T10:16:58.482Z,1.30
2019-05-15T10:18:03.221Z,1.45
2019-05-15T10:19:09.167Z,2.05
2019-05-15T10:20:14.266Z,2.30
2019-05-15T10:21:19.289Z,2.10
2019-05-15T10:22:24.307Z,2.45
2019-05-15T10:23:29.915Z,1.70
2019-05-15T10:24:35.301Z,1.80
2019-05-15T10:25:40.885Z,2.00
2019-05-15T10:26:45.568Z,1.75
2019-05-15T10:27:51.467Z,1.55
2019-05-15T10:28:58.280Z,1.90
2019-05-15T10:30:02.960Z,1.98
2019-05-15T10:31:09.381Z,1.90
2019-05-15T10:32:15.259Z,1.40
2019-05-15T10:33:20.551Z,1.42
2019-05-15T10:34:26.244Z,1.92
2019-05-15T10:35:31.848Z,1.52
2019-05-15T10:36:38.688Z,1.67
2019-05-15T10:37:43.819Z,1.77
2019-05-15T10:38:49.279Z,1.57
2019-05-15T10:39:54.323Z,1.40
2019-05-15T10:41:08.557Z,1.60
2019-05-15T10:42:08.238Z,1.50
2019-05-15T10:43:13.559Z,1.72
2019-05-15T10:44:18.854Z,1.62
2019-05-15T10:45:23.914Z,1.72
2019-05-15T10:46:28.375Z,1.72
2019-05-15T10:47:33.945Z,1.80
2019-05-15T10:48:38.676Z,1.52
2019-05-15T10:49:44.662Z,1.62
2019-05-15T10:50:49.428Z,2.45
2019-05-15T10:51:55.102Z,1.75
2019-05-15T10:53:00.470Z,1.80
2019-05-15T10:54:08.604Z,1.70
2019-05-15T10:55:13.798Z,1.90
2019-05-15T10:56:19.431Z,1.80
2019-05-15T10:57:27.914Z,1.87
2019-05-15T10:58:33.852Z,1.85
2019-05-15T10:59:40.608Z,2.00
2019-05-15T11:00:49.016Z,2.33
2019-05-15T11:01:52.696Z,1.87
2019-05-15T11:02:58.400Z,1.90
2019-05-15T11:04:03.151Z,2.30
2019-05-15T11:05:09.595Z,1.82
2019-05-15T11:06:14.832Z,1.90
2019-05-15T11:07:20.695Z,1.72
2019-05-15T11:08:28.958Z,2.00
2019-05-15T11:09:33.886Z,2.33
2019-05-15T11:10:41.871Z,1.80
2019-05-15T11:11:48.689Z,1.77
2019-05-15T11:12:53.793Z,1.87
2019-05-15T11:14:00.558Z,2.10
2019-05-15T11:15:05.529Z,1.80
2019-05-15T11:16:11.053Z,1.72
2019-05-15T11:17:16.687Z,2.00
2019-05-15T11:18:22.239Z,1.98
2019-05-15T11:19:35.678Z,1.95
2019-05-15T11:20:33.981Z,2.05
2019-05-15T11:21:38.456Z,1.77
2019-05-15T11:22:44.077Z,1.90
2019-05-15T11:23:49.490Z,2.00
2019-05-15T11:24:54.817Z,2.10
2019-05-15T11:25:59.551Z,1.98
2019-05-15T11:27:05.121Z,2.02
2019-05-15T11:28:09.852Z,1.70
2019-05-15T11:29:15.355Z,1.47
2019-05-15T11:30:20.077Z,1.72
2019-05-15T11:31:25.608Z,1.90
2019-05-15T11:32:30.752Z,2.00
2019-05-15T11:33:38.459Z,1.52
2019-05-15T11:34:43.520Z,2.00
2019-05-15T11:36:01.256Z,2.00
2019-05-15T11:36:55.783Z,1.77
2019-05-15T11:38:01.060Z,1.82
2019-05-15T11:39:08.426Z,1.50
2019-05-15T11:40:15.349Z,1.42
2019-05-15T11:41:20.851Z,1.42
2019-05-15T11:42:28.883Z,1.87
2019-05-15T11:43:33.395Z,1.62
2019-05-15T11:44:39.082Z,1.72
2019-05-15T11:45:44.052Z,1.62
2019-05-15T11:46:49.911Z,1.42
2019-05-15T11:47:54.887Z,1.60
2019-05-15T11:49:00.468Z,1.50
2019-05-15T11:50:08.206Z,1.77
2019-05-15T11:51:12.681Z,1.37
2019-05-15T11:52:18.872Z,1.60
2019-05-15T11:53:24.055Z,1.98
2019-05-15T11:54:28.745Z,1.70
2019-05-15T11:55:33.980Z,1.50
2019-05-15T11:56:39.418Z,1.60
2019-05-15T11:57:47.577Z,1.55
2019-05-15T11:58:52.011Z,1.40
2019-05-15T11:59:59.570Z,1.50
2019-05-15T12:01:04.239Z,1.47
2019-05-15T12:02:09.507Z,1.55
2019-05-15T12:03:14.764Z,1.42
2019-05-15T12:04:30.173Z,1.42
2019-05-15T12:05:28.768Z,1.40
2019-05-15T12:06:34.602Z,1.45
2019-05-15T12:07:39.836Z,1.40
2019-05-15T12:08:45.381Z,1.60
2019-05-15T12:09:50.395Z,1.30
2019-05-15T12:10:59.221Z,1.60
2019-05-15T12:12:03.272Z,1.30
2019-05-15T12:13:09.872Z,1.40
2019-05-15T12:14:14.847Z,1.67
2019-05-15T12:15:21.329Z,1.35
2019-05-15T12:16:28.802Z,1.30
2019-05-15T12:17:34.243Z,1.60
2019-05-15T12:18:39.328Z,1.47
2019-05-15T12:19:55.097Z,1.50
2019-05-15T12:20:51.698Z,1.70
2019-05-15T12:21:59.786Z,1.20
2019-05-15T12:23:03.943Z,1.40
2019-05-15T12:24:10.111Z,1.40
2019-05-15T12:25:14.953Z,1.75
2019-05-15T12:26:20.502Z,1.67
2019-05-15T12:27:30.538Z,1.25
2019-05-15T12:28:43.650Z,1.15
2019-05-15T12:29:52.680Z,1.37
2019-05-15T12:31:00.965Z,1.27
2019-05-15T12:32:23.394Z,1.40
2019-05-15T12:33:13.635Z,1.30
2019-05-15T12:34:19.125Z,1.47
2019-05-15T12:35:24.757Z,1.30
2019-05-15T12:36:50.754Z,1.10
2019-05-15T12:37:39.912Z,1.37
2019-05-15T12:38:43.835Z,1.52
2019-05-15T12:59:54.973Z,1.35
2019-05-15T13:00:59.662Z,1.42
2019-05-15T13:02:05.227Z,1.40
2019-05-15T13:03:10.477Z,1.42
2019-05-15T13:04:16.057Z,1.42
2019-05-15T13:05:20.762Z,1.80
2019-05-15T13:06:28.344Z,1.52
2019-05-15T13:07:33.131Z,1.70
2019-05-15T13:08:38.802Z,1.45
2019-05-15T13:09:43.912Z,1.50
2019-05-15T13:10:49.511Z,1.32
2019-05-15T13:11:54.514Z,1.72
2019-05-15T13:13:05.142Z,1.65
2019-05-15T13:14:08.181Z,1.60
2019-05-15T13:15:13.462Z,1.30
2019-05-15T13:16:18.873Z,1.22
2019-05-15T13:17:24.573Z,1.40
2019-05-15T13:18:29.264Z,1.27
2019-05-15T13:19:34.545Z,1.40
2019-05-15T13:20:39.684Z,1.30
2019-05-15T13:21:45.778Z,1.70
2019-05-15T13:23:55.784Z,1.47
2019-05-15T13:25:00.906Z,1.57
2019-05-15T13:26:21.493Z,1.30
2019-05-15T13:27:13.501Z,1.40
2019-05-15T13:28:19.026Z,1.45
2019-05-15T13:29:24.027Z,1.30
2019-05-15T13:30:30.151Z,1.50
2019-05-15T13:31:34.942Z,1.52
2019-05-15T13:32:41.382Z,1.20
2019-05-15T13:33:48.101Z,1.37
2019-05-15T13:34:53.451Z,1.30
2019-05-15T13:35:58.722Z,1.45
2019-05-15T13:37:04.275Z,1.50
2019-05-15T13:38:10.230Z,1.27
2019-05-15T13:39:18.405Z,1.50
2019-05-15T13:40:33.999Z,1.50
2019-05-15T13:41:29.808Z,1.22
2019-05-15T13:42:34.278Z,1.40
2019-05-15T13:43:40.123Z,1.25
2019-05-15T13:44:45.128Z,1.20
2019-05-15T13:45:50.416Z,1.40
2019-05-15T13:46:55.225Z,1.25
2019-05-15T13:48:01.400Z,1.50
2019-05-15T13:49:08.355Z,1.35
2019-05-15T13:50:13.791Z,1.47
2019-05-15T13:51:18.408Z,1.47
2019-05-15T13:52:23.765Z,1.72
2019-05-15T13:53:29.033Z,1.50
2019-05-15T13:54:34.279Z,1.45
2019-05-15T13:55:42.581Z,1.47
2019-05-15T13:56:48.633Z,1.50
2019-05-15T13:57:53.446Z,1.40
2019-05-15T13:58:59.159Z,1.30
2019-05-15T14:00:04.205Z,1.40
2019-05-15T14:01:09.768Z,1.30
2019-05-15T14:02:15.064Z,1.42
2019-05-15T14:03:20.678Z,1.30
2019-05-15T14:04:25.658Z,1.57
2019-05-15T14:05:31.211Z,1.47
2019-05-15T14:06:38.028Z,1.20
2019-05-15T14:07:49.371Z,1.20
2019-05-15T14:08:50.400Z,1.62
2019-05-15T14:09:55.756Z,1.30
2019-05-15T14:11:01.938Z,1.42
2019-05-15T14:12:12.096Z,1.40
2019-05-15T14:13:13.351Z,1.27
2019-05-15T14:14:18.617Z,1.40
2019-05-15T14:15:23.063Z,1.42
2019-05-15T14:16:29.191Z,1.42
2019-05-15T14:17:34.022Z,1.50
2019-05-15T14:18:40.161Z,1.50
2019-05-15T14:19:45.431Z,1.42
2019-05-15T14:20:51.245Z,1.37
2019-05-15T14:21:58.454Z,1.60
2019-05-15T14:23:04.080Z,1.20
2019-05-15T14:24:09.178Z,1.30
2019-05-15T14:25:14.852Z,1.42
2019-05-15T14:26:23.064Z,1.50
2019-05-15T14:27:28.897Z,1.42
2019-05-15T14:28:34.365Z,1.42
2019-05-15T14:29:40.190Z,1.47
2019-05-15T14:30:44.621Z,1.20
2019-05-15T14:31:50.018Z,1.50
2019-05-15T14:32:55.799Z,1.42
2019-05-15T14:34:01.195Z,1.40
2019-05-15T14:35:08.484Z,1.35
2019-05-15T14:36:13.567Z,1.55
2019-05-15T14:37:18.911Z,1.60
2019-05-15T14:38:24.862Z,1.30
2019-05-15T14:39:29.906Z,1.52
2019-05-15T14:40:35.245Z,1.47
2019-05-15T14:41:40.566Z,1.50
2019-05-15T14:42:48.328Z,1.60
2019-05-15T14:43:52.539Z,1.30
2019-05-15T14:44:59.539Z,1.52
2019-05-15T14:46:04.160Z,1.67
2019-05-15T14:47:10.001Z,1.30
2019-05-15T14:48:14.998Z,2.00
2019-05-15T14:49:20.308Z,1.27
2019-05-15T14:50:25.368Z,1.40
2019-05-15T14:51:31.098Z,1.40
2019-05-15T14:52:38.368Z,1.32
2019-05-15T14:53:43.956Z,1.52
2019-05-15T14:54:49.106Z,1.47
2019-05-15T14:55:54.129Z,1.25
2019-05-15T14:57:00.022Z,1.17